createdAt,value
2023-03-25T00:02:00.004Z,12.10
2023-03-25T00:04:30.758Z,11.40
2023-03-25T00:07:02.131Z,12.90
2023-03-25T00:09:33.106Z,12.20
2023-03-25T00:12:04.793Z,15.00
2023-03-25T00:14:35.408Z,17.20
2023-03-25T00:17:07.179Z,12.70
2023-03-25T00:19:37.977Z,12.00
2023-03-25T00:22:09.119Z,12.00
2023-03-25T00:24:39.778Z,13.40
2023-03-25T00:27:10.695Z,14.10
2023-03-25T00:29:41.324Z,13.30
2023-03-25T00:32:12.362Z,16.10
2023-03-25T00:34:47.755Z,14.40
2023-03-25T00:37:22.042Z,13.10
2023-03-25T00:39:52.649Z,13.90
2023-03-25T00:42:26.634Z,19.00
2023-03-25T00:44:57.696Z,13.00
2023-03-25T00:47:28.674Z,14.20
2023-03-25T00:49:59.381Z,15.70
2023-03-25T00:52:30.514Z,18.30
2023-03-25T00:55:02.384Z,15.50
2023-03-25T00:57:33.517Z,16.30
2023-03-25T01:00:06.732Z,17.20
2023-03-25T01:02:39.549Z,22.60
2023-03-25T01:05:11.810Z,15.30
2023-03-25T01:07:43.146Z,15.40
2023-03-25T01:10:13.905Z,15.60
2023-03-25T01:12:45.293Z,18.20
2023-03-25T01:15:16.333Z,15.40
2023-03-25T01:17:47.513Z,13.90
2023-03-25T01:20:19.127Z,12.50
2023-03-25T01:22:50.733Z,14.90
2023-03-25T01:25:21.506Z,14.30
2023-03-25T01:27:52.655Z,12.60
2023-03-25T01:30:23.699Z,11.70
2023-03-25T01:32:54.868Z,12.40
2023-03-25T01:35:25.985Z,13.10
2023-03-25T01:37:57.058Z,12.90
2023-03-25T01:40:27.888Z,13.50
2023-03-25T01:42:59.201Z,12.00
2023-03-25T01:45:30.974Z,17.60
2023-03-25T01:48:04.865Z,15.00
2023-03-25T01:50:36.338Z,13.50
2023-03-25T01:53:07.926Z,16.00
2023-03-25T01:55:40.556Z,13.10
2023-03-25T01:58:15.604Z,14.60
2023-03-25T02:00:48.092Z,14.90
2023-03-25T02:03:22.002Z,15.90
2023-03-25T02:05:55.378Z,14.30
2023-03-25T02:08:28.139Z,15.70
2023-03-25T02:10:59.286Z,12.70
2023-03-25T02:13:30.226Z,13.20
2023-03-25T02:16:15.699Z,15.40
2023-03-25T02:18:50.733Z,15.70
2023-03-25T02:21:38.056Z,13.90
2023-03-25T02:24:15.935Z,12.90
2023-03-25T02:27:00.240Z,12.20
2023-03-25T02:29:39.136Z,11.10
2023-03-25T02:32:17.630Z,11.60
2023-03-25T02:34:59.910Z,11.60
2023-03-25T02:37:51.715Z,12.80
2023-03-25T02:40:27.231Z,12.20
2023-03-25T02:45:30.403Z,12.40
2023-03-25T02:48:03.682Z,11.70
2023-03-25T02:50:37.531Z,11.60
2023-03-25T02:53:11.319Z,12.10
2023-03-25T02:55:44.887Z,13.10
2023-03-25T02:58:18.242Z,14.30
2023-03-25T03:03:17.809Z,12.00
2023-03-25T03:05:51.393Z,10.50
2023-03-25T03:08:35.846Z,9.60
2023-03-25T03:11:12.839Z,9.60
2023-03-25T03:14:09.323Z,10.80
2023-03-25T03:16:48.703Z,9.10
2023-03-25T03:19:27.662Z,9.70
2023-03-25T03:22:01.900Z,10.60
2023-03-25T03:24:33.858Z,10.00
2023-03-25T03:27:10.619Z,14.50
2023-03-25T03:29:46.098Z,9.70
2023-03-25T03:32:19.648Z,8.10
2023-03-25T03:34:53.220Z,10.10
2023-03-25T03:37:25.453Z,9.20
2023-03-25T03:39:56.799Z,8.40
2023-03-25T03:42:31.316Z,8.60
2023-03-25T03:45:03.899Z,8.70
2023-03-25T03:47:37.772Z,9.40
2023-03-25T03:50:10.903Z,8.20
2023-03-25T03:52:43.264Z,7.90
2023-03-25T03:55:15.753Z,7.60
2023-03-25T03:57:47.904Z,7.00
2023-03-25T04:00:21.255Z,6.50
2023-03-25T04:05:23.135Z,10.50
2023-03-25T04:08:00.462Z,8.30
2023-03-25T04:10:39.532Z,8.20
2023-03-25T04:13:11.738Z,7.20
2023-03-25T04:15:42.756Z,7.00
2023-03-25T04:18:13.939Z,8.00
2023-03-25T04:20:49.807Z,7.40
2023-03-25T04:23:21.600Z,9.70
2023-03-25T04:25:53.564Z,6.60
2023-03-25T04:28:26.146Z,11.60
2023-03-25T04:30:57.986Z,10.00
2023-03-25T04:33:30.525Z,7.20
2023-03-25T04:36:02.187Z,9.00
2023-03-25T04:38:33.139Z,9.90
2023-03-25T04:41:07.072Z,7.30
2023-03-25T04:43:39.939Z,8.10
2023-03-25T04:46:12.388Z,6.70
2023-03-25T04:48:45.673Z,10.00
2023-03-25T04:51:16.817Z,6.70
2023-03-25T04:53:48.165Z,6.60
2023-03-25T04:56:19.721Z,6.70
2023-03-25T04:58:50.562Z,9.30
2023-03-25T05:01:24.062Z,6.10
2023-03-25T05:03:55.085Z,6.80
2023-03-25T05:06:26.358Z,9.30
2023-03-25T05:08:57.172Z,7.20
2023-03-25T05:11:28.103Z,8.20
2023-03-25T05:13:59.261Z,7.30
2023-03-25T05:16:30.462Z,7.00
2023-03-25T05:19:01.267Z,6.80
2023-03-25T05:21:32.984Z,6.80
2023-03-25T05:24:03.719Z,6.00
2023-03-25T05:26:35.574Z,8.70
2023-03-25T05:29:07.540Z,8.20
2023-03-25T05:31:38.842Z,8.30
2023-03-25T05:34:10.194Z,11.20
2023-03-25T05:36:42.847Z,8.00
2023-03-25T05:39:13.854Z,14.10
2023-03-25T05:41:46.160Z,12.80
2023-03-25T05:44:19.719Z,10.70
2023-03-25T05:46:51.512Z,13.80
2023-03-25T05:49:22.329Z,13.30
2023-03-25T05:51:54.276Z,8.60
2023-03-25T05:54:26.131Z,11.10
2023-03-25T05:56:58.177Z,9.30
2023-03-25T05:59:29.029Z,11.10
2023-03-25T06:02:01.257Z,10.20
2023-03-25T06:04:34.604Z,11.80
2023-03-25T06:07:09.278Z,9.80
2023-03-25T06:09:46.650Z,11.10
2023-03-25T06:12:20.074Z,10.40
2023-03-25T06:14:54.569Z,10.10
2023-03-25T06:17:25.472Z,10.70
2023-03-25T06:19:56.100Z,11.70
2023-03-25T06:22:27.748Z,11.90
2023-03-25T06:24:58.218Z,11.60
2023-03-25T06:27:29.289Z,10.30
2023-03-25T06:29:59.907Z,9.70
2023-03-25T06:43:11.298Z,11.50
2023-03-25T06:46:01.114Z,11.60
2023-03-25T06:48:55.365Z,13.20
2023-03-25T06:51:26.617Z,11.00
2023-03-25T06:53:57.291Z,10.50
2023-03-25T06:56:28.457Z,11.10
2023-03-25T06:58:59.257Z,13.90
2023-03-25T07:01:30.295Z,11.80
2023-03-25T07:04:01.008Z,16.10
2023-03-25T07:06:32.748Z,11.90
2023-03-25T07:09:04.691Z,10.90
2023-03-25T07:11:36.268Z,10.40
2023-03-25T07:14:07.512Z,10.10
2023-03-25T07:16:38.398Z,14.90
2023-03-25T07:19:09.391Z,11.80
2023-03-25T07:21:40.424Z,11.60
2023-03-25T07:24:11.363Z,10.40
2023-03-25T07:26:42.421Z,11.40
2023-03-25T07:29:13.652Z,11.80
2023-03-25T07:31:44.306Z,11.90
2023-03-25T07:34:15.222Z,9.10
2023-03-25T07:36:46.167Z,10.40
2023-03-25T07:39:18.961Z,9.60
2023-03-25T07:41:50.250Z,9.00
2023-03-25T07:44:32.084Z,8.50
2023-03-25T07:47:03.224Z,9.30
2023-03-25T07:49:34.478Z,9.30
2023-03-25T07:52:06.025Z,10.80
2023-03-25T07:54:37.375Z,9.00
2023-03-25T07:57:08.944Z,9.80
2023-03-25T07:59:39.654Z,10.20
2023-03-25T08:02:13.491Z,10.70
2023-03-25T08:04:44.393Z,12.30
2023-03-25T08:07:15.126Z,11.80
2023-03-25T08:09:45.974Z,12.20
2023-03-25T08:12:16.934Z,12.20
2023-03-25T08:14:48.142Z,12.50
2023-03-25T08:17:18.885Z,14.90
2023-03-25T08:19:49.746Z,12.30
2023-03-25T08:22:20.446Z,13.30
2023-03-25T08:24:52.017Z,12.30
2023-03-25T08:27:22.833Z,13.20
2023-03-25T08:29:57.794Z,12.50
2023-03-25T08:32:29.035Z,10.10
2023-03-25T08:34:59.850Z,11.00
2023-03-25T08:37:30.990Z,11.00
2023-03-25T08:40:01.828Z,10.20
2023-03-25T08:42:32.869Z,10.60
2023-03-25T08:45:04.342Z,9.80
2023-03-25T08:47:35.505Z,9.10
2023-03-25T08:50:07.335Z,7.40
2023-03-25T08:52:38.172Z,9.50
2023-03-25T08:55:12.167Z,9.70
2023-03-25T08:57:43.280Z,7.80
2023-03-25T09:00:15.155Z,10.30
2023-03-25T09:02:46.456Z,13.70
2023-03-25T09:05:17.582Z,9.30
2023-03-25T09:07:48.325Z,8.10
2023-03-25T09:10:19.237Z,9.00
2023-03-25T09:12:49.895Z,6.60
2023-03-25T09:15:21.437Z,6.80
2023-03-25T09:17:52.382Z,10.10
2023-03-25T09:20:23.183Z,7.70
2023-03-25T09:22:54.478Z,8.00
2023-03-25T09:25:26.132Z,8.10
2023-03-25T09:27:57.325Z,6.70
2023-03-25T09:30:28.163Z,6.40
2023-03-25T09:32:58.841Z,7.50
2023-03-25T09:35:30.070Z,7.50
2023-03-25T09:38:00.802Z,7.90
2023-03-25T09:40:32.062Z,7.60
2023-03-25T09:43:05.625Z,6.90
2023-03-25T09:45:39.236Z,6.80
2023-03-25T09:48:17.319Z,10.40
2023-03-25T09:50:49.014Z,8.10
2023-03-25T09:53:25.005Z,6.00
2023-03-25T09:55:56.389Z,6.40
2023-03-25T09:58:30.386Z,6.50
2023-03-25T10:01:04.964Z,7.70
2023-03-25T10:03:37.200Z,6.90
2023-03-25T10:06:20.578Z,6.30
2023-03-25T10:11:23.564Z,9.80
2023-03-25T10:13:57.218Z,15.70
2023-03-25T10:16:35.016Z,6.20
2023-03-25T10:19:16.948Z,8.50
2023-03-25T10:21:51.562Z,8.30
2023-03-25T10:24:23.924Z,5.90
2023-03-25T10:26:56.057Z,7.60
2023-03-25T10:29:29.247Z,7.50
2023-03-25T10:34:35.038Z,9.40
2023-03-25T10:37:12.661Z,10.20
2023-03-25T10:39:46.027Z,6.30
2023-03-25T10:44:46.976Z,6.70
2023-03-25T10:47:19.861Z,5.90
2023-03-25T10:49:51.779Z,8.10
2023-03-25T10:52:22.471Z,7.30
2023-03-25T10:54:55.101Z,7.00
2023-03-25T10:57:27.602Z,8.90
2023-03-25T11:02:29.364Z,7.20
2023-03-25T11:05:01.872Z,8.60
2023-03-25T11:07:34.334Z,6.40
2023-03-25T11:10:16.071Z,7.90
2023-03-25T11:12:48.420Z,4.50
2023-03-25T11:15:20.450Z,5.40
2023-03-25T11:17:58.512Z,8.80
2023-03-25T11:20:31.541Z,7.80
2023-03-25T11:23:06.406Z,6.30
2023-03-25T11:25:42.239Z,5.20
2023-03-25T11:28:16.470Z,5.90
2023-03-25T11:31:01.275Z,5.10
2023-03-25T11:33:32.142Z,6.70
2023-03-25T11:36:11.687Z,5.50
2023-03-25T11:38:42.827Z,6.80
2023-03-25T11:41:14.973Z,5.70
2023-03-25T11:43:49.410Z,6.60
2023-03-25T11:46:22.043Z,4.30
2023-03-25T11:48:53.337Z,5.20
2023-03-25T11:51:25.528Z,5.60
2023-03-25T11:53:58.719Z,4.20
2023-03-25T11:56:31.673Z,5.70
2023-03-25T11:59:03.492Z,3.90
2023-03-25T12:01:39.100Z,4.80
2023-03-25T12:04:17.392Z,5.60
2023-03-25T12:06:59.087Z,9.10
2023-03-25T12:09:31.885Z,6.80
2023-03-25T12:12:16.835Z,6.90
2023-03-25T12:14:54.224Z,6.20
2023-03-25T12:17:30.111Z,5.00
2023-03-25T12:20:08.592Z,4.90
2023-03-25T12:22:47.008Z,9.00
2023-03-25T12:25:26.664Z,5.60
2023-03-25T12:28:06.606Z,4.60
2023-03-25T12:30:46.853Z,6.10
2023-03-25T12:33:23.483Z,6.60
2023-03-25T12:36:02.962Z,5.90
2023-03-25T12:38:43.641Z,4.90
2023-03-25T12:41:21.487Z,7.90
2023-03-25T12:44:00.141Z,5.90
2023-03-25T12:46:51.463Z,5.60
2023-03-25T12:49:30.619Z,5.90
2023-03-25T12:52:04.937Z,6.80
2023-03-25T12:54:42.203Z,7.70
2023-03-25T12:57:18.067Z,5.50
2023-03-25T13:00:01.295Z,5.90
2023-03-25T13:02:39.397Z,6.90
2023-03-25T13:05:17.207Z,8.50
2023-03-25T13:07:50.333Z,7.30
2023-03-25T13:12:52.326Z,2.50
2023-03-25T13:18:00.458Z,4.00
2023-03-25T13:20:33.358Z,6.00
2023-03-25T13:23:07.226Z,3.00
2023-03-25T13:25:44.060Z,2.70
2023-03-25T13:28:16.793Z,4.10
2023-03-25T13:30:49.336Z,3.50
2023-03-25T13:33:22.481Z,4.80
2023-03-25T13:35:54.926Z,2.90
2023-03-25T13:38:28.883Z,3.10
2023-03-25T13:41:09.319Z,3.80
2023-03-25T13:43:45.190Z,2.90
2023-03-25T13:46:17.476Z,3.10
2023-03-25T13:48:51.481Z,3.90
2023-03-25T13:51:22.180Z,3.90
2023-03-25T13:53:56.023Z,4.10
2023-03-25T13:56:43.638Z,4.60
2023-03-25T13:59:26.179Z,3.30
2023-03-25T14:02:10.083Z,5.00
2023-03-25T14:04:48.867Z,7.40
2023-03-25T14:07:36.852Z,5.70
2023-03-25T14:10:25.076Z,6.00
2023-03-25T14:12:57.768Z,8.10
2023-03-25T14:15:30.819Z,4.10
2023-03-25T14:18:01.805Z,6.20
2023-03-25T14:20:34.905Z,6.30
2023-03-25T14:23:07.166Z,5.90
2023-03-25T14:25:40.509Z,5.50
2023-03-25T14:28:13.653Z,7.10
2023-03-25T14:30:46.206Z,4.40
2023-03-25T14:33:19.961Z,6.10
2023-03-25T14:35:51.756Z,5.70
2023-03-25T14:38:43.495Z,5.10
2023-03-25T14:41:14.828Z,6.60
2023-03-25T14:43:48.715Z,7.40
2023-03-25T14:46:22.128Z,6.00
2023-03-25T14:48:54.638Z,5.40
2023-03-25T14:51:43.058Z,5.80
2023-03-25T14:54:22.028Z,7.20
2023-03-25T14:56:58.536Z,7.00
2023-03-25T14:59:32.184Z,5.30
2023-03-25T15:02:05.206Z,5.50
2023-03-25T15:07:06.445Z,5.30
2023-03-25T15:09:46.055Z,6.30
2023-03-25T15:12:18.719Z,5.80
2023-03-25T15:14:50.394Z,6.90
2023-03-25T15:17:34.946Z,7.80
2023-03-25T15:20:31.889Z,6.20
2023-03-25T15:23:16.135Z,5.30
2023-03-25T15:25:47.450Z,6.70
2023-03-25T15:28:24.057Z,5.50
2023-03-25T15:31:06.857Z,4.90
2023-03-25T15:33:46.410Z,4.10
2023-03-25T15:36:28.212Z,6.00
2023-03-25T15:39:08.407Z,4.10
2023-03-25T15:41:52.924Z,5.40
2023-03-25T15:44:49.651Z,5.80
2023-03-25T15:47:29.936Z,5.00
2023-03-25T15:50:13.915Z,7.50
2023-03-25T15:53:03.664Z,7.00
2023-03-25T15:55:38.433Z,5.00
2023-03-25T15:58:13.388Z,4.80
2023-03-25T16:00:47.425Z,5.10
2023-03-25T16:03:21.362Z,9.80
2023-03-25T16:05:53.690Z,5.40
2023-03-25T16:08:27.011Z,5.90
2023-03-25T16:10:57.630Z,6.30
2023-03-25T16:13:28.748Z,8.40
2023-03-25T16:16:00.367Z,7.10
2023-03-25T16:18:31.652Z,7.60
2023-03-25T16:21:03.725Z,5.50
2023-03-25T16:23:36.695Z,6.10
2023-03-25T16:26:07.946Z,5.70
2023-03-25T16:28:43.000Z,5.50
2023-03-25T16:31:28.841Z,6.60
2023-03-25T16:34:01.196Z,4.20
2023-03-25T16:36:32.124Z,6.60
2023-03-25T16:39:06.276Z,6.00
2023-03-25T16:41:37.290Z,5.20
2023-03-25T16:44:09.499Z,5.60
2023-03-25T16:46:40.397Z,8.80
2023-03-25T16:49:15.886Z,5.00
2023-03-25T16:51:46.937Z,6.80
2023-03-25T16:54:24.597Z,6.50
2023-03-25T16:56:55.250Z,5.80
2023-03-25T16:59:28.748Z,5.20
2023-03-25T17:02:00.525Z,7.40
2023-03-25T17:04:42.275Z,5.70
2023-03-25T17:07:14.919Z,5.50
2023-03-25T17:09:50.518Z,5.70
2023-03-25T17:12:21.780Z,5.90
2023-03-25T17:14:54.340Z,5.60
2023-03-25T17:17:33.586Z,5.90
2023-03-25T17:20:08.845Z,5.20
2023-03-25T17:22:40.714Z,6.50
2023-03-25T17:25:19.084Z,7.50
2023-03-25T17:27:49.696Z,7.70
2023-03-25T17:30:22.088Z,8.90
2023-03-25T17:32:53.680Z,7.50
2023-03-25T17:35:27.779Z,7.90
2023-03-25T17:37:59.087Z,10.20
2023-03-25T17:40:30.612Z,10.90
2023-03-25T17:43:01.681Z,10.10
2023-03-25T17:45:32.637Z,10.60
2023-03-25T17:48:03.484Z,9.10
2023-03-25T17:50:34.495Z,9.00
2023-03-25T17:53:05.026Z,10.70
2023-03-25T17:55:36.230Z,9.40
2023-03-25T17:58:07.314Z,8.50
2023-03-25T18:00:38.630Z,10.00
2023-03-25T18:03:12.762Z,7.20
2023-03-25T18:05:43.952Z,9.30
2023-03-25T18:08:15.464Z,9.70
2023-03-25T18:10:46.606Z,9.20
2023-03-25T18:13:17.245Z,7.70
2023-03-25T18:15:48.000Z,7.20
2023-03-25T18:18:19.479Z,8.40
2023-03-25T18:20:51.078Z,8.00
2023-03-25T18:23:21.837Z,9.80
2023-03-25T18:25:52.873Z,7.10
2023-03-25T18:28:25.015Z,9.60
2023-03-25T18:30:57.418Z,7.00
2023-03-25T18:33:34.220Z,7.30
2023-03-25T18:36:06.195Z,8.60
2023-03-25T18:38:36.981Z,8.80
2023-03-25T18:41:09.130Z,10.90
2023-03-25T18:43:39.766Z,9.90
2023-03-25T18:46:12.360Z,9.50
2023-03-25T18:48:44.304Z,9.40
2023-03-25T18:51:15.297Z,11.10
2023-03-25T18:53:47.615Z,7.00
2023-03-25T18:56:20.816Z,9.80
2023-03-25T18:58:51.641Z,9.50
2023-03-25T19:01:23.141Z,11.40
2023-03-25T19:03:53.924Z,11.00
2023-03-25T19:06:25.412Z,14.00
2023-03-25T19:08:57.639Z,11.20
2023-03-25T19:11:31.040Z,10.40
2023-03-25T19:14:02.232Z,12.60
2023-03-25T19:16:33.482Z,10.30
2023-03-25T19:19:04.852Z,13.60
2023-03-25T19:21:35.706Z,13.90
2023-03-25T19:24:07.263Z,15.10
2023-03-25T19:26:39.640Z,15.60
2023-03-25T19:29:10.586Z,15.80
2023-03-25T19:31:42.711Z,19.10
2023-03-25T19:34:13.500Z,19.20
2023-03-25T19:36:47.193Z,18.80
2023-03-25T19:39:19.200Z,18.60
2023-03-25T19:41:51.922Z,17.10
2023-03-25T19:44:22.715Z,18.00
2023-03-25T19:46:53.920Z,20.20
2023-03-25T19:49:38.757Z,16.10
2023-03-25T19:52:11.139Z,16.70
2023-03-25T19:54:42.603Z,19.80
2023-03-25T19:57:13.905Z,18.10
2023-03-25T19:59:45.392Z,16.80
2023-03-25T20:02:17.329Z,17.60
2023-03-25T20:04:48.698Z,18.00
2023-03-25T20:07:20.706Z,18.40
2023-03-25T20:09:51.599Z,14.10
2023-03-25T20:12:22.743Z,17.00
2023-03-25T20:14:53.486Z,16.30
2023-03-25T20:17:24.755Z,17.50
2023-03-25T20:19:55.431Z,17.10
2023-03-25T20:22:26.790Z,18.40
2023-03-25T20:24:57.755Z,20.30
2023-03-25T20:27:29.526Z,19.60
2023-03-25T20:30:00.457Z,20.80
2023-03-25T20:32:40.546Z,19.20
2023-03-25T20:35:14.101Z,19.70
2023-03-25T20:37:45.885Z,19.20
2023-03-25T20:40:17.935Z,18.00
2023-03-25T20:42:49.458Z,18.70
2023-03-25T20:45:21.422Z,20.90
2023-03-25T20:47:52.464Z,22.50
2023-03-25T20:50:23.713Z,18.70
2023-03-25T20:52:55.264Z,20.30
2023-03-25T20:55:25.982Z,19.80
2023-03-25T20:57:56.996Z,21.90
2023-03-25T21:00:28.327Z,22.40
2023-03-25T21:02:59.755Z,25.00
2023-03-25T21:05:30.449Z,25.20
2023-03-25T21:08:01.835Z,22.90
2023-03-25T21:10:32.552Z,24.50
2023-03-25T21:13:07.477Z,21.50
2023-03-25T21:15:40.076Z,26.40
2023-03-25T21:18:11.183Z,23.60
2023-03-25T21:20:41.870Z,20.50
2023-03-25T21:23:13.069Z,24.40
2023-03-25T21:25:43.589Z,19.90
2023-03-25T21:28:18.144Z,21.80
2023-03-25T21:30:50.297Z,23.40
2023-03-25T21:33:21.432Z,22.50
2023-03-25T21:35:54.455Z,19.20
2023-03-25T21:38:29.549Z,21.00
2023-03-25T21:41:01.192Z,20.70
2023-03-25T21:43:32.483Z,21.30
2023-03-25T21:46:05.500Z,22.30
2023-03-25T21:51:14.511Z,21.20
2023-03-25T21:53:46.570Z,23.60
2023-03-25T21:56:19.940Z,21.20
2023-03-25T21:58:52.122Z,24.90
2023-03-25T22:01:28.860Z,16.60
2023-03-25T22:04:00.857Z,18.40
2023-03-25T22:06:33.573Z,15.40
2023-03-25T22:09:06.307Z,12.70
2023-03-25T22:11:37.809Z,10.80
2023-03-25T22:14:09.947Z,7.10
2023-03-25T22:16:40.872Z,7.00
2023-03-25T22:19:13.131Z,7.40
2023-03-25T22:21:43.869Z,9.00
2023-03-25T22:24:14.575Z,8.50
2023-03-25T22:26:45.312Z,7.40
2023-03-25T22:29:16.351Z,8.70
2023-03-25T22:31:47.116Z,9.70
2023-03-25T22:34:18.216Z,8.40
2023-03-25T22:36:51.109Z,7.90
2023-03-25T22:39:23.402Z,8.00
2023-03-25T22:41:54.310Z,7.50
2023-03-25T22:44:26.143Z,7.60
2023-03-25T22:46:57.001Z,8.20
2023-03-25T22:49:28.068Z,7.50
2023-03-25T22:51:58.894Z,8.00
2023-03-25T22:54:29.867Z,7.40
2023-03-25T22:57:00.992Z,6.70
2023-03-25T22:59:32.218Z,6.80
2023-03-25T23:02:05.061Z,5.70
2023-03-25T23:04:36.074Z,6.40
2023-03-25T23:07:08.609Z,4.10
2023-03-25T23:09:42.673Z,4.00
2023-03-25T23:12:14.565Z,6.10
2023-03-25T23:14:49.526Z,4.10
2023-03-25T23:17:20.454Z,5.20
2023-03-25T23:19:51.508Z,5.30
2023-03-25T23:22:22.654Z,5.20
2023-03-25T23:24:53.611Z,5.90
2023-03-25T23:27:25.551Z,5.40
2023-03-25T23:29:57.096Z,4.00
2023-03-25T23:32:28.146Z,4.90
2023-03-25T23:35:00.415Z,4.70
2023-03-25T23:37:31.587Z,6.20
2023-03-25T23:40:02.882Z,4.70
2023-03-25T23:42:35.428Z,4.90
2023-03-25T23:45:07.855Z,4.40
2023-03-25T23:47:38.696Z,5.70
2023-03-25T23:50:11.773Z,5.30
2023-03-25T23:52:43.010Z,4.60
2023-03-25T23:55:14.357Z,5.40
2023-03-25T23:57:45.088Z,5.80
